createdAt,value
2022-11-20T00:01:26.502Z,13.85
2022-11-20T00:03:53.908Z,14.02
2022-11-20T00:06:20.742Z,13.43
2022-11-20T00:08:47.448Z,14.05
2022-11-20T00:11:18.732Z,14.20
2022-11-20T00:13:45.837Z,14.00
2022-11-20T00:16:13.720Z,13.82
2022-11-20T00:18:40.307Z,14.13
2022-11-20T00:21:08.998Z,13.60
2022-11-20T00:23:35.569Z,13.82
2022-11-20T00:26:06.788Z,13.35
2022-11-20T00:28:33.652Z,13.13
2022-11-20T00:31:03.792Z,12.95
2022-11-20T00:33:30.968Z,13.35
2022-11-20T00:36:07.626Z,12.52
2022-11-20T00:38:34.295Z,13.52
2022-11-20T00:41:02.290Z,12.57
2022-11-20T00:43:28.973Z,12.35
2022-11-20T00:45:59.263Z,13.02
2022-11-20T00:48:25.980Z,15.60
2022-11-20T00:50:52.635Z,12.65
2022-11-20T00:53:19.218Z,13.25
2022-11-20T00:55:57.102Z,12.80
2022-11-20T00:58:24.342Z,12.80
2022-11-20T01:00:51.025Z,12.23
2022-11-20T01:03:22.723Z,11.88
2022-11-20T01:05:52.308Z,12.32
2022-11-20T01:08:18.969Z,12.80
2022-11-20T01:10:45.575Z,12.75
2022-11-20T01:13:30.698Z,13.05
2022-11-20T01:16:03.662Z,12.60
2022-11-20T01:18:30.257Z,12.65
2022-11-20T01:21:00.459Z,13.48
2022-11-20T01:23:27.057Z,13.45
2022-11-20T01:25:53.676Z,13.45
2022-11-20T01:28:20.270Z,14.65
2022-11-20T01:30:46.881Z,14.10
2022-11-20T01:33:13.482Z,14.13
2022-11-20T01:35:40.084Z,14.00
2022-11-20T01:38:06.648Z,13.10
2022-11-20T01:40:33.216Z,12.30
2022-11-20T01:43:23.173Z,13.65
2022-11-20T01:46:04.293Z,12.57
2022-11-20T01:48:34.523Z,14.02
2022-11-20T01:51:01.147Z,14.25
2022-11-20T01:53:31.611Z,13.02
2022-11-20T01:55:58.377Z,14.13
2022-11-20T01:58:31.031Z,12.50
2022-11-20T02:00:57.650Z,13.82
2022-11-20T02:03:24.268Z,13.10
2022-11-20T02:05:56.851Z,13.35
2022-11-20T02:08:23.523Z,12.77
2022-11-20T02:10:50.116Z,13.20
2022-11-20T02:13:35.709Z,14.00
2022-11-20T02:16:02.771Z,12.95
2022-11-20T02:18:29.393Z,13.43
2022-11-20T02:21:02.093Z,13.48
2022-11-20T02:23:33.511Z,14.32
2022-11-20T02:26:00.597Z,13.68
2022-11-20T02:28:27.215Z,13.88
2022-11-20T02:30:53.813Z,13.77
2022-11-20T02:33:20.394Z,14.80
2022-11-20T02:35:47.367Z,13.88
2022-11-20T02:38:14.179Z,14.55
2022-11-20T02:40:40.922Z,14.25
2022-11-20T02:43:07.528Z,14.35
2022-11-20T02:45:34.179Z,14.00
2022-11-20T02:48:00.820Z,14.30
2022-11-20T02:50:27.410Z,14.82
2022-11-20T02:52:54.030Z,14.73
2022-11-20T02:55:20.623Z,14.10
2022-11-20T02:57:47.172Z,14.52
2022-11-20T03:00:14.267Z,14.07
2022-11-20T03:02:40.956Z,14.73
2022-11-20T03:05:07.745Z,14.85
2022-11-20T03:07:34.603Z,15.60
2022-11-20T03:10:01.247Z,15.40
2022-11-20T03:12:28.117Z,14.50
2022-11-20T03:14:54.701Z,15.52
2022-11-20T03:17:21.291Z,15.18
2022-11-20T03:19:47.883Z,15.82
2022-11-20T03:22:14.544Z,14.27
2022-11-20T03:24:41.170Z,15.15
2022-11-20T03:27:07.861Z,13.90
2022-11-20T03:29:35.677Z,14.88
2022-11-20T03:32:02.284Z,13.75
2022-11-20T03:34:29.182Z,13.23
2022-11-20T03:36:55.793Z,14.20
2022-11-20T03:39:22.515Z,13.38
2022-11-20T03:41:49.284Z,13.77
2022-11-20T03:44:15.927Z,13.80
2022-11-20T03:46:42.500Z,13.52
2022-11-20T03:49:09.065Z,13.15
2022-11-20T03:51:36.425Z,14.07
2022-11-20T03:54:07.675Z,14.30
2022-11-20T03:56:35.946Z,14.00
2022-11-20T03:59:06.095Z,13.90
2022-11-20T04:01:34.482Z,14.15
2022-11-20T04:04:01.109Z,13.27
2022-11-20T04:06:29.599Z,14.35
2022-11-20T04:08:56.887Z,14.20
2022-11-20T04:11:28.276Z,13.88
2022-11-20T04:13:56.352Z,14.90
2022-11-20T04:16:23.268Z,14.38
2022-11-20T04:18:57.287Z,14.85
2022-11-20T04:21:24.158Z,15.35
2022-11-20T04:23:51.369Z,15.60
2022-11-20T04:26:17.976Z,14.90
2022-11-20T04:28:44.566Z,14.82
2022-11-20T04:31:15.740Z,15.20
2022-11-20T04:33:42.323Z,15.15
2022-11-20T04:36:13.470Z,14.05
2022-11-20T04:38:40.368Z,14.60
2022-11-20T04:41:08.526Z,14.57
2022-11-20T04:43:35.244Z,14.75
2022-11-20T04:46:01.972Z,14.60
2022-11-20T04:48:29.339Z,14.07
2022-11-20T04:50:56.176Z,15.00
2022-11-20T04:53:22.889Z,14.63
2022-11-20T04:55:49.541Z,14.82
2022-11-20T04:58:16.563Z,13.55
2022-11-20T05:00:43.156Z,14.68
2022-11-20T05:03:09.775Z,14.80
2022-11-20T05:05:36.384Z,14.88
2022-11-20T05:08:05.656Z,15.23
2022-11-20T05:10:32.242Z,15.35
2022-11-20T05:12:58.840Z,16.23
2022-11-20T05:15:25.679Z,15.10
2022-11-20T05:17:52.981Z,15.15
2022-11-20T05:20:19.805Z,15.73
2022-11-20T05:22:46.502Z,16.00
2022-11-20T05:25:13.164Z,15.88
2022-11-20T05:27:39.806Z,16.73
2022-11-20T05:30:06.967Z,18.17
2022-11-20T05:32:33.581Z,16.60
2022-11-20T05:35:00.222Z,16.65
2022-11-20T05:37:26.812Z,16.02
2022-11-20T05:39:53.377Z,17.67
2022-11-20T05:42:31.794Z,16.20
2022-11-20T05:45:03.273Z,17.23
2022-11-20T05:47:33.971Z,16.67
2022-11-20T05:50:00.584Z,16.73
2022-11-20T05:52:30.267Z,16.30
2022-11-20T05:54:58.031Z,16.52
2022-11-20T05:57:24.648Z,16.90
2022-11-20T05:59:51.253Z,15.98
2022-11-20T06:02:17.902Z,16.27
2022-11-20T06:04:44.514Z,16.92
2022-11-20T06:07:11.356Z,16.30
2022-11-20T06:09:38.038Z,16.58
2022-11-20T06:12:04.998Z,16.45
2022-11-20T06:14:31.583Z,16.10
2022-11-20T06:16:58.230Z,16.17
2022-11-20T06:19:24.889Z,16.45
2022-11-20T06:21:51.548Z,17.38
2022-11-20T06:24:18.189Z,18.08
2022-11-20T06:26:45.038Z,17.05
2022-11-20T06:29:11.708Z,18.08
2022-11-20T06:31:38.613Z,17.77
2022-11-20T06:34:06.974Z,16.65
2022-11-20T06:36:33.764Z,16.60
2022-11-20T06:39:00.865Z,18.15
2022-11-20T06:41:28.841Z,17.02
2022-11-20T06:43:55.621Z,17.83
2022-11-20T06:46:22.420Z,17.90
2022-11-20T06:48:49.640Z,17.38
2022-11-20T06:51:16.305Z,18.77
2022-11-20T06:53:42.983Z,17.90
2022-11-20T06:56:09.726Z,18.45
2022-11-20T06:58:36.834Z,18.55
2022-11-20T07:01:08.185Z,17.40
2022-11-20T07:03:34.920Z,18.38
2022-11-20T07:06:01.781Z,18.38
2022-11-20T07:08:28.439Z,18.58
2022-11-20T07:10:58.509Z,18.55
2022-11-20T07:13:25.139Z,17.13
2022-11-20T07:15:51.794Z,18.42
2022-11-20T07:18:18.371Z,17.55
2022-11-20T07:20:45.054Z,17.83
2022-11-20T07:23:11.668Z,19.80
2022-11-20T07:25:38.316Z,19.52
2022-11-20T07:28:05.034Z,18.75
2022-11-20T07:30:31.649Z,18.98
2022-11-20T07:32:58.380Z,18.63
2022-11-20T07:35:25.546Z,17.80
2022-11-20T07:37:52.209Z,17.10
2022-11-20T07:40:18.874Z,17.50
2022-11-20T07:42:57.802Z,18.92
2022-11-20T07:45:24.753Z,17.98
2022-11-20T07:47:51.712Z,19.80
2022-11-20T07:50:18.663Z,19.17
2022-11-20T07:52:45.296Z,18.75
2022-11-20T07:55:12.099Z,18.83
2022-11-20T07:57:38.728Z,19.30
2022-11-20T08:00:06.258Z,18.15
2022-11-20T08:02:32.836Z,19.13
2022-11-20T08:04:59.657Z,20.15
2022-11-20T08:07:26.325Z,19.95
2022-11-20T08:09:52.948Z,20.73
2022-11-20T08:12:38.989Z,21.05
2022-11-20T08:15:12.527Z,20.55
2022-11-20T08:17:39.707Z,20.05
2022-11-20T08:20:06.586Z,19.92
2022-11-20T08:22:33.317Z,23.23
2022-11-20T08:24:59.908Z,21.90
2022-11-20T08:27:26.512Z,22.67
2022-11-20T08:29:53.138Z,22.00
2022-11-20T08:32:19.715Z,22.00
2022-11-20T08:34:47.234Z,21.52
2022-11-20T08:37:13.808Z,21.75
2022-11-20T08:39:40.679Z,21.13
2022-11-20T08:42:10.952Z,21.90
2022-11-20T08:44:37.536Z,22.05
2022-11-20T08:47:04.107Z,20.75
2022-11-20T08:49:30.703Z,23.02
2022-11-20T08:51:58.085Z,21.42
2022-11-20T08:54:24.699Z,20.42
2022-11-20T08:56:51.297Z,21.45
2022-11-20T08:59:36.794Z,21.52
2022-11-20T09:02:04.440Z,21.38
2022-11-20T09:04:31.057Z,21.00
2022-11-20T09:06:57.746Z,20.73
2022-11-20T09:09:24.658Z,20.73
2022-11-20T09:11:51.520Z,20.95
2022-11-20T09:14:18.113Z,22.23
2022-11-20T09:16:46.683Z,21.23
2022-11-20T09:19:34.672Z,20.58
2022-11-20T09:22:00.940Z,21.38
2022-11-20T09:24:28.125Z,22.00
2022-11-20T09:26:54.797Z,21.38
2022-11-20T09:29:21.733Z,22.85
2022-11-20T09:31:48.561Z,26.02
2022-11-20T09:34:15.215Z,23.05
2022-11-20T09:36:41.827Z,21.65
2022-11-20T09:39:08.394Z,21.83
2022-11-20T09:41:57.259Z,21.10
2022-11-20T09:44:53.126Z,20.75
2022-11-20T09:48:07.564Z,21.15
2022-11-20T09:51:00.448Z,22.42
2022-11-20T09:53:45.316Z,22.65
2022-11-20T09:56:11.894Z,21.90
2022-11-20T09:58:43.682Z,23.27
2022-11-20T10:01:17.794Z,24.48
2022-11-20T10:04:11.267Z,25.48
2022-11-20T10:06:59.692Z,25.52
2022-11-20T10:09:37.900Z,24.95
2022-11-20T10:12:24.537Z,23.60
2022-11-20T10:14:57.351Z,25.13
2022-11-20T10:17:51.817Z,26.05
2022-11-20T10:20:55.540Z,25.02
2022-11-20T10:24:00.516Z,23.17
2022-11-20T10:26:48.937Z,24.02
2022-11-20T10:29:19.838Z,23.75
2022-11-20T10:31:58.096Z,27.77
2022-11-20T10:34:30.338Z,24.58
2022-11-20T10:37:17.489Z,25.08
2022-11-20T10:40:02.812Z,24.20
2022-11-20T10:42:52.085Z,23.95
2022-11-20T10:45:41.327Z,23.65
2022-11-20T10:48:08.246Z,21.05
2022-11-20T10:50:39.587Z,22.92
2022-11-20T10:53:08.612Z,24.42
2022-11-20T10:55:46.186Z,23.13
2022-11-20T10:58:35.322Z,23.75
2022-11-20T11:01:06.372Z,21.15
2022-11-20T11:03:33.098Z,22.08
2022-11-20T11:06:10.009Z,21.88
2022-11-20T11:08:38.906Z,20.27
2022-11-20T11:11:28.478Z,21.70
2022-11-20T11:14:08.702Z,19.20
2022-11-20T11:16:35.322Z,18.98
2022-11-20T11:19:15.113Z,18.00
2022-11-20T11:22:00.300Z,16.20
2022-11-20T11:24:44.178Z,17.50
2022-11-20T11:27:18.039Z,17.90
2022-11-20T11:29:45.354Z,17.33
2022-11-20T11:32:22.674Z,18.15
2022-11-20T11:35:05.985Z,18.50
2022-11-20T11:37:36.969Z,17.83
2022-11-20T11:40:23.371Z,18.17
2022-11-20T11:42:57.599Z,18.58
2022-11-20T11:45:24.268Z,19.50
2022-11-20T11:47:52.405Z,19.92
2022-11-20T11:50:19.342Z,20.50
2022-11-20T11:52:48.297Z,21.65
2022-11-20T11:55:39.040Z,18.88
2022-11-20T11:58:27.026Z,19.50
2022-11-20T12:01:23.002Z,19.63
2022-11-20T12:04:09.090Z,22.20
2022-11-20T12:06:35.823Z,18.10
2022-11-20T12:09:04.670Z,19.73
2022-11-20T12:11:46.521Z,19.17
2022-11-20T12:14:24.908Z,19.25
2022-11-20T12:16:51.741Z,20.17
2022-11-20T12:19:18.333Z,19.13
2022-11-20T12:21:58.494Z,18.58
2022-11-20T12:24:48.527Z,19.10
2022-11-20T12:27:24.007Z,18.77
2022-11-20T12:30:09.743Z,19.50
2022-11-20T12:32:58.010Z,18.63
2022-11-20T12:36:06.200Z,17.50
2022-11-20T12:38:51.512Z,17.65
2022-11-20T12:41:42.773Z,18.63
2022-11-20T12:44:55.114Z,18.48
2022-11-20T12:47:27.549Z,18.92
2022-11-20T12:50:02.104Z,19.65
2022-11-20T12:52:40.268Z,20.13
2022-11-20T12:55:22.512Z,18.20
2022-11-20T12:58:02.532Z,20.02
2022-11-20T13:00:29.235Z,18.08
2022-11-20T13:03:01.823Z,19.17
2022-11-20T13:05:56.200Z,18.38
2022-11-20T13:08:28.752Z,17.90
2022-11-20T13:11:08.309Z,17.73
2022-11-20T13:13:49.565Z,19.27
2022-11-20T13:16:26.012Z,17.88
2022-11-20T13:18:52.613Z,18.55
2022-11-20T13:21:23.804Z,18.40
2022-11-20T13:23:50.575Z,16.50
2022-11-20T13:26:21.858Z,18.08
2022-11-20T13:28:49.592Z,17.50
2022-11-20T13:31:32.388Z,18.90
2022-11-20T13:33:59.028Z,20.50
2022-11-20T13:36:27.601Z,21.80
2022-11-20T13:38:55.295Z,21.90
2022-11-20T13:41:29.696Z,23.23
2022-11-20T13:44:33.801Z,18.55
2022-11-20T13:47:00.448Z,19.40
2022-11-20T13:49:31.129Z,19.45
2022-11-20T13:52:24.512Z,19.35
2022-11-20T13:55:03.022Z,17.23
2022-11-20T13:57:35.546Z,17.52
2022-11-20T14:00:18.252Z,18.02
2022-11-20T14:02:45.706Z,18.40
2022-11-20T14:05:21.909Z,18.38
2022-11-20T14:07:48.784Z,17.90
2022-11-20T14:10:31.976Z,18.60
2022-11-20T14:12:59.553Z,20.67
2022-11-20T14:15:32.873Z,19.88
2022-11-20T14:18:00.098Z,20.80
2022-11-20T14:20:32.105Z,22.25
2022-11-20T14:22:58.731Z,20.92
2022-11-20T14:25:28.186Z,22.50
2022-11-20T14:27:56.269Z,22.90
2022-11-20T14:30:30.238Z,23.10
2022-11-20T14:32:58.453Z,24.77
2022-11-20T14:35:29.981Z,23.92
2022-11-20T14:37:56.754Z,26.00
2022-11-20T14:40:23.738Z,25.00
2022-11-20T14:42:50.508Z,26.20
2022-11-20T14:45:17.208Z,26.02
2022-11-20T14:47:43.981Z,26.75
2022-11-20T14:50:28.272Z,26.67
2022-11-20T14:52:59.677Z,24.90
2022-11-20T14:55:31.615Z,26.95
2022-11-20T14:58:02.847Z,25.10
2022-11-20T15:00:30.307Z,26.25
2022-11-20T15:02:56.975Z,26.55
2022-11-20T15:05:45.642Z,25.00
2022-11-20T15:08:16.498Z,26.83
2022-11-20T15:10:50.051Z,27.13
2022-11-20T15:13:33.453Z,24.13
2022-11-20T15:16:01.472Z,25.42
2022-11-20T15:18:33.345Z,25.17
2022-11-20T15:21:02.588Z,24.60
2022-11-20T15:23:29.632Z,27.67
2022-11-20T15:25:56.323Z,26.80
2022-11-20T15:28:29.498Z,28.20
2022-11-20T15:30:57.324Z,25.77
2022-11-20T15:33:23.937Z,26.52
2022-11-20T15:35:50.599Z,26.48
2022-11-20T15:38:17.334Z,26.95
2022-11-20T15:40:44.038Z,24.20
2022-11-20T15:43:13.558Z,25.95
2022-11-20T15:45:49.628Z,24.15
2022-11-20T15:48:17.409Z,24.38
2022-11-20T15:51:00.708Z,24.23
2022-11-20T15:53:27.470Z,25.10
2022-11-20T15:55:54.198Z,26.20
2022-11-20T15:58:20.942Z,25.08
2022-11-20T16:00:47.584Z,25.88
2022-11-20T16:03:15.110Z,26.10
2022-11-20T16:05:41.794Z,25.27
2022-11-20T16:08:11.573Z,25.35
2022-11-20T16:10:38.760Z,25.85
2022-11-20T16:13:24.186Z,25.75
2022-11-20T16:15:56.155Z,25.67
2022-11-20T16:18:22.979Z,26.77
2022-11-20T16:20:54.597Z,25.98
2022-11-20T16:23:21.738Z,27.15
2022-11-20T16:25:48.465Z,25.80
2022-11-20T16:28:18.800Z,26.42
2022-11-20T16:30:46.020Z,27.83
2022-11-20T16:33:15.986Z,28.15
2022-11-20T16:35:42.690Z,26.35
2022-11-20T16:38:09.499Z,28.77
2022-11-20T16:40:36.271Z,28.77
2022-11-20T16:43:08.802Z,29.33
2022-11-20T16:45:35.512Z,30.40
2022-11-20T16:48:02.195Z,29.10
2022-11-20T16:50:28.820Z,31.85
2022-11-20T16:52:55.968Z,31.23
2022-11-20T16:55:22.620Z,31.23
2022-11-20T16:57:49.277Z,32.65
2022-11-20T17:00:16.283Z,32.10
2022-11-20T17:02:42.934Z,30.77
2022-11-20T17:05:09.647Z,31.60
2022-11-20T17:07:37.818Z,30.95
2022-11-20T17:10:04.822Z,31.67
2022-11-20T17:12:31.456Z,31.42
2022-11-20T17:14:58.096Z,33.67
2022-11-20T17:17:24.752Z,33.83
2022-11-20T17:19:51.482Z,33.55
2022-11-20T17:22:18.097Z,38.63
2022-11-20T17:24:44.698Z,34.85
2022-11-20T17:27:11.513Z,36.65
2022-11-20T17:29:42.059Z,37.80
2022-11-20T17:32:09.072Z,34.55
2022-11-20T17:34:35.687Z,33.05
2022-11-20T17:37:02.374Z,32.85
2022-11-20T17:39:29.012Z,32.90
2022-11-20T17:42:14.306Z,34.20
2022-11-20T17:44:42.622Z,33.50
2022-11-20T17:47:09.296Z,31.42
2022-11-20T17:49:35.880Z,33.50
2022-11-20T17:52:02.524Z,31.95
2022-11-20T17:54:29.269Z,33.13
2022-11-20T17:57:14.552Z,32.97
2022-11-20T17:59:41.200Z,33.05
2022-11-20T18:02:08.740Z,31.52
2022-11-20T18:04:35.431Z,30.65
2022-11-20T18:07:02.083Z,33.20
2022-11-20T18:09:28.786Z,30.60
2022-11-20T18:11:55.391Z,32.95
2022-11-20T18:14:36.297Z,30.98
2022-11-20T18:17:07.786Z,32.20
2022-11-20T18:19:40.256Z,34.15
2022-11-20T18:22:12.390Z,31.35
2022-11-20T18:24:39.541Z,29.90
2022-11-20T18:27:07.287Z,28.73
2022-11-20T18:29:34.006Z,28.02
2022-11-20T18:32:01.186Z,29.67
2022-11-20T18:34:27.939Z,26.65
2022-11-20T18:36:54.622Z,28.08
2022-11-20T18:39:21.771Z,26.42
2022-11-20T18:42:07.089Z,25.52
2022-11-20T18:44:52.086Z,25.67
2022-11-20T18:47:30.462Z,26.70
2022-11-20T18:49:58.817Z,24.73
2022-11-20T18:52:38.593Z,25.35
2022-11-20T18:55:06.010Z,23.80
2022-11-20T18:57:32.895Z,23.73
2022-11-20T19:00:03.546Z,24.58
2022-11-20T19:02:36.676Z,22.90
2022-11-20T19:05:07.627Z,25.75
2022-11-20T19:07:34.354Z,23.83
2022-11-20T19:10:03.709Z,22.23
2022-11-20T19:12:31.021Z,22.90
2022-11-20T19:14:57.936Z,23.55
2022-11-20T19:17:24.652Z,24.23
2022-11-20T19:19:52.090Z,22.50
2022-11-20T19:22:18.728Z,22.23
2022-11-20T19:24:45.903Z,23.48
2022-11-20T19:27:12.571Z,22.52
2022-11-20T19:29:39.383Z,23.00
2022-11-20T19:32:06.162Z,21.17
2022-11-20T19:34:32.789Z,22.17
2022-11-20T19:37:00.763Z,21.80
2022-11-20T19:39:27.511Z,20.90
2022-11-20T19:41:54.326Z,21.23
2022-11-20T19:44:21.047Z,20.50
2022-11-20T19:46:47.785Z,21.35
2022-11-20T19:49:14.595Z,20.25
2022-11-20T19:51:45.777Z,19.85
2022-11-20T19:54:12.477Z,20.15
2022-11-20T19:56:39.180Z,19.90
2022-11-20T19:59:05.965Z,18.13
2022-11-20T20:01:32.709Z,17.60
2022-11-20T20:04:05.006Z,16.92
2022-11-20T20:06:32.410Z,15.52
2022-11-20T20:09:09.337Z,14.70
2022-11-20T20:11:36.168Z,14.77
2022-11-20T20:14:10.753Z,13.55
2022-11-20T20:16:37.432Z,12.65
2022-11-20T20:19:04.613Z,12.38
2022-11-20T20:21:31.993Z,11.93
2022-11-20T20:23:58.824Z,10.27
2022-11-20T20:26:26.274Z,11.40
2022-11-20T20:28:52.957Z,10.52
2022-11-20T20:31:21.184Z,11.18
2022-11-20T20:33:47.928Z,11.32
2022-11-20T20:36:15.855Z,11.07
2022-11-20T20:38:43.233Z,10.65
2022-11-20T20:41:10.044Z,11.32
2022-11-20T20:43:57.082Z,10.50
2022-11-20T20:46:24.050Z,10.23
2022-11-20T20:48:54.369Z,9.50
2022-11-20T20:51:21.864Z,9.13
2022-11-20T20:53:48.591Z,9.82
2022-11-20T20:56:15.327Z,9.57
2022-11-20T20:58:42.065Z,7.60
2022-11-20T21:01:13.288Z,7.15
2022-11-20T21:03:40.086Z,5.70
2022-11-20T21:06:07.387Z,6.28
2022-11-20T21:08:34.785Z,5.22
2022-11-20T21:11:04.949Z,5.03
2022-11-20T21:13:31.828Z,4.88
2022-11-20T21:15:58.518Z,4.22
2022-11-20T21:18:25.546Z,3.70
2022-11-20T21:21:10.650Z,3.70
2022-11-20T21:23:37.449Z,20.67
2022-11-20T21:26:08.549Z,3.70
2022-11-20T21:28:35.729Z,3.20
2022-11-20T21:31:10.069Z,3.53
2022-11-20T21:33:44.306Z,3.28
2022-11-20T21:36:12.471Z,3.35
2022-11-20T21:38:39.267Z,3.20
2022-11-20T21:41:06.962Z,3.03
2022-11-20T21:43:33.738Z,2.90
2022-11-20T21:46:18.617Z,2.90
2022-11-20T21:48:45.873Z,2.88
2022-11-20T21:51:19.775Z,2.97
2022-11-20T21:53:46.932Z,2.90
2022-11-20T21:56:17.705Z,2.58
2022-11-20T21:58:46.897Z,2.50
2022-11-20T22:01:27.305Z,6.97
2022-11-20T22:03:57.157Z,2.40
2022-11-20T22:06:29.702Z,2.22
2022-11-20T22:08:56.322Z,2.28
2022-11-20T22:11:23.018Z,2.80
2022-11-20T22:14:08.097Z,2.30
2022-11-20T22:16:35.848Z,2.20
2022-11-20T22:19:02.503Z,1.98
2022-11-20T22:21:30.071Z,2.20
2022-11-20T22:23:56.946Z,1.73
2022-11-20T22:26:25.253Z,1.63
2022-11-20T22:28:53.498Z,5.43
2022-11-20T22:31:21.111Z,2.53
2022-11-20T22:33:47.822Z,1.92
2022-11-20T22:36:18.309Z,1.88
2022-11-20T22:38:44.987Z,1.92
2022-11-20T22:41:22.193Z,2.22
2022-11-20T22:43:48.886Z,1.88
2022-11-20T22:46:19.238Z,2.15
2022-11-20T22:48:50.760Z,2.38
2022-11-20T22:51:17.933Z,2.20
2022-11-20T22:53:44.616Z,2.22
2022-11-20T22:56:14.937Z,2.08
2022-11-20T22:58:43.191Z,1.98
2022-11-20T23:01:26.614Z,2.20
2022-11-20T23:03:55.931Z,2.00
2022-11-20T23:06:22.739Z,1.77
2022-11-20T23:08:50.044Z,1.63
2022-11-20T23:11:21.434Z,2.10
2022-11-20T23:13:48.184Z,2.17
2022-11-20T23:16:16.408Z,2.92
2022-11-20T23:18:43.351Z,2.10
2022-11-20T23:21:10.811Z,1.88
2022-11-20T23:23:37.684Z,2.22
2022-11-20T23:26:08.961Z,1.45
2022-11-20T23:28:35.910Z,1.52
2022-11-20T23:31:03.628Z,1.75
2022-11-20T23:33:30.376Z,2.17
2022-11-20T23:35:57.046Z,1.80
2022-11-20T23:38:23.774Z,1.58
2022-11-20T23:40:51.016Z,1.80
2022-11-20T23:43:18.194Z,1.70
2022-11-20T23:45:46.299Z,1.73
2022-11-20T23:48:12.979Z,1.15
2022-11-20T23:50:39.773Z,1.23
2022-11-20T23:53:06.475Z,1.85
2022-11-20T23:55:33.455Z,1.75
2022-11-20T23:58:00.194Z,1.88
